sensor_id;sensor_type;location;lat;lon;timestamp;P1;durP1;ratioP1;P2;durP2;ratioP2
15936;SDS011;9163;48.818;8.976;2022-12-20T00:02:04;11.73;;;8.67;;
15936;SDS011;9163;48.818;8.976;2022-12-20T00:04:31;13.37;;;8.70;;
15936;SDS011;9163;48.818;8.976;2022-12-20T00:06:58;13.53;;;8.77;;
15936;SDS011;9163;48.818;8.976;2022-12-20T00:09:25;11.57;;;8.47;;
15936;SDS011;9163;48.818;8.976;2022-12-20T00:11:53;11.30;;;8.43;;
15936;SDS011;9163;48.818;8.976;2022-12-20T00:14:20;11.73;;;8.30;;
15936;SDS011;9163;48.818;8.976;2022-12-20T00:16:48;13.17;;;8.47;;
15936;SDS011;9163;48.818;8.976;2022-12-20T00:19:16;12.60;;;8.23;;
15936;SDS011;9163;48.818;8.976;2022-12-20T00:21:43;12.63;;;8.43;;
15936;SDS011;9163;48.818;8.976;2022-12-20T00:24:11;11.30;;;8.30;;
15936;SDS011;9163;48.818;8.976;2022-12-20T00:26:38;12.30;;;8.10;;
15936;SDS011;9163;48.818;8.976;2022-12-20T00:29:05;11.63;;;7.93;;
15936;SDS011;9163;48.818;8.976;2022-12-20T00:31:33;11.73;;;8.90;;
15936;SDS011;9163;48.818;8.976;2022-12-20T00:34:00;12.47;;;8.63;;
15936;SDS011;9163;48.818;8.976;2022-12-20T00:36:30;13.27;;;8.30;;
15936;SDS011;9163;48.818;8.976;2022-12-20T00:38:58;10.60;;;7.87;;
15936;SDS011;9163;48.818;8.976;2022-12-20T00:41:26;11.63;;;8.43;;
15936;SDS011;9163;48.818;8.976;2022-12-20T00:43:55;14.70;;;8.67;;
15936;SDS011;9163;48.818;8.976;2022-12-20T00:46:22;12.27;;;8.77;;
15936;SDS011;9163;48.818;8.976;2022-12-20T00:48:50;12.83;;;8.83;;
15936;SDS011;9163;48.818;8.976;2022-12-20T00:51:19;13.77;;;8.43;;
15936;SDS011;9163;48.818;8.976;2022-12-20T00:53:48;13.73;;;8.63;;
15936;SDS011;9163;48.818;8.976;2022-12-20T00:56:16;13.93;;;8.17;;
15936;SDS011;9163;48.818;8.976;2022-12-20T00:58:43;12.67;;;8.07;;
15936;SDS011;9163;48.818;8.976;2022-12-20T01:01:13;11.53;;;8.30;;
15936;SDS011;9163;48.818;8.976;2022-12-20T01:03:43;13.80;;;8.70;;
15936;SDS011;9163;48.818;8.976;2022-12-20T01:06:10;12.57;;;8.03;;
15936;SDS011;9163;48.818;8.976;2022-12-20T01:08:38;12.87;;;7.90;;
15936;SDS011;9163;48.818;8.976;2022-12-20T01:11:08;12.87;;;7.93;;
15936;SDS011;9163;48.818;8.976;2022-12-20T01:13:38;10.97;;;7.60;;
15936;SDS011;9163;48.818;8.976;2022-12-20T01:16:07;11.60;;;8.13;;
15936;SDS011;9163;48.818;8.976;2022-12-20T01:18:37;13.33;;;8.20;;
15936;SDS011;9163;48.818;8.976;2022-12-20T01:21:05;13.07;;;8.27;;
15936;SDS011;9163;48.818;8.976;2022-12-20T01:23:35;11.77;;;7.83;;
15936;SDS011;9163;48.818;8.976;2022-12-20T01:26:03;12.23;;;7.70;;
15936;SDS011;9163;48.818;8.976;2022-12-20T01:28:35;12.57;;;7.60;;
15936;SDS011;9163;48.818;8.976;2022-12-20T01:31:05;10.90;;;7.73;;
15936;SDS011;9163;48.818;8.976;2022-12-20T01:33:33;11.37;;;8.43;;
15936;SDS011;9163;48.818;8.976;2022-12-20T01:36:01;13.20;;;8.40;;
15936;SDS011;9163;48.818;8.976;2022-12-20T01:38:30;10.27;;;7.83;;
15936;SDS011;9163;48.818;8.976;2022-12-20T01:40:58;12.13;;;7.80;;
15936;SDS011;9163;48.818;8.976;2022-12-20T01:43:28;11.67;;;7.67;;
15936;SDS011;9163;48.818;8.976;2022-12-20T01:46:13;13.20;;;8.40;;
15936;SDS011;9163;48.818;8.976;2022-12-20T01:48:40;10.43;;;7.50;;
15936;SDS011;9163;48.818;8.976;2022-12-20T01:51:11;12.03;;;7.63;;
15936;SDS011;9163;48.818;8.976;2022-12-20T01:53:39;12.47;;;7.53;;
15936;SDS011;9163;48.818;8.976;2022-12-20T01:56:06;10.63;;;7.67;;
15936;SDS011;9163;48.818;8.976;2022-12-20T01:58:35;12.20;;;7.90;;
15936;SDS011;9163;48.818;8.976;2022-12-20T02:01:06;10.70;;;7.60;;
15936;SDS011;9163;48.818;8.976;2022-12-20T02:03:33;11.27;;;8.00;;
15936;SDS011;9163;48.818;8.976;2022-12-20T02:06:11;9.90;;;7.13;;
15936;SDS011;9163;48.818;8.976;2022-12-20T02:08:41;11.10;;;7.40;;
15936;SDS011;9163;48.818;8.976;2022-12-20T02:11:13;11.60;;;7.63;;
15936;SDS011;9163;48.818;8.976;2022-12-20T02:13:54;11.37;;;7.50;;
15936;SDS011;9163;48.818;8.976;2022-12-20T02:16:32;10.47;;;7.63;;
15936;SDS011;9163;48.818;8.976;2022-12-20T02:19:07;10.30;;;7.40;;
15936;SDS011;9163;48.818;8.976;2022-12-20T02:21:44;11.90;;;7.90;;
15936;SDS011;9163;48.818;8.976;2022-12-20T02:24:19;11.87;;;7.63;;
15936;SDS011;9163;48.818;8.976;2022-12-20T02:27:25;13.13;;;7.83;;
15936;SDS011;9163;48.818;8.976;2022-12-20T02:30:04;11.13;;;7.50;;
15936;SDS011;9163;48.818;8.976;2022-12-20T02:32:35;12.27;;;7.87;;
15936;SDS011;9163;48.818;8.976;2022-12-20T02:35:07;10.30;;;7.30;;
15936;SDS011;9163;48.818;8.976;2022-12-20T02:37:35;10.97;;;7.30;;
15936;SDS011;9163;48.818;8.976;2022-12-20T02:40:12;11.10;;;7.87;;
15936;SDS011;9163;48.818;8.976;2022-12-20T02:42:40;10.23;;;7.63;;
15936;SDS011;9163;48.818;8.976;2022-12-20T02:45:10;10.53;;;7.43;;
15936;SDS011;9163;48.818;8.976;2022-12-20T02:47:47;10.03;;;7.33;;
15936;SDS011;9163;48.818;8.976;2022-12-20T02:50:20;12.37;;;7.70;;
15936;SDS011;9163;48.818;8.976;2022-12-20T02:52:51;13.70;;;7.97;;
15936;SDS011;9163;48.818;8.976;2022-12-20T02:55:19;10.13;;;7.57;;
15936;SDS011;9163;48.818;8.976;2022-12-20T02:57:51;10.67;;;6.90;;
15936;SDS011;9163;48.818;8.976;2022-12-20T03:00:25;10.83;;;7.47;;
15936;SDS011;9163;48.818;8.976;2022-12-20T03:02:57;12.07;;;7.60;;
15936;SDS011;9163;48.818;8.976;2022-12-20T03:05:42;12.37;;;7.17;;
15936;SDS011;9163;48.818;8.976;2022-12-20T03:08:11;10.47;;;7.30;;
15936;SDS011;9163;48.818;8.976;2022-12-20T03:10:38;11.20;;;7.80;;
15936;SDS011;9163;48.818;8.976;2022-12-20T03:13:06;12.37;;;7.37;;
15936;SDS011;9163;48.818;8.976;2022-12-20T03:15:34;10.47;;;7.10;;
15936;SDS011;9163;48.818;8.976;2022-12-20T03:18:02;10.37;;;7.10;;
15936;SDS011;9163;48.818;8.976;2022-12-20T03:20:29;10.80;;;7.63;;
15936;SDS011;9163;48.818;8.976;2022-12-20T03:22:56;10.90;;;7.17;;
15936;SDS011;9163;48.818;8.976;2022-12-20T03:25:24;10.23;;;7.00;;
15936;SDS011;9163;48.818;8.976;2022-12-20T03:27:51;9.10;;;7.00;;
15936;SDS011;9163;48.818;8.976;2022-12-20T03:30:18;9.70;;;7.23;;
15936;SDS011;9163;48.818;8.976;2022-12-20T03:32:47;11.93;;;7.33;;
15936;SDS011;9163;48.818;8.976;2022-12-20T03:35:14;10.57;;;6.97;;
15936;SDS011;9163;48.818;8.976;2022-12-20T03:37:42;10.03;;;6.93;;
15936;SDS011;9163;48.818;8.976;2022-12-20T03:40:09;10.30;;;7.10;;
15936;SDS011;9163;48.818;8.976;2022-12-20T03:42:37;9.63;;;7.40;;
15936;SDS011;9163;48.818;8.976;2022-12-20T03:45:05;9.43;;;6.80;;
15936;SDS011;9163;48.818;8.976;2022-12-20T03:47:33;10.63;;;7.00;;
15936;SDS011;9163;48.818;8.976;2022-12-20T03:50:02;10.63;;;6.90;;
15936;SDS011;9163;48.818;8.976;2022-12-20T03:52:30;10.03;;;6.83;;
15936;SDS011;9163;48.818;8.976;2022-12-20T03:54:57;10.47;;;6.97;;
15936;SDS011;9163;48.818;8.976;2022-12-20T03:57:24;8.90;;;6.30;;
15936;SDS011;9163;48.818;8.976;2022-12-20T03:59:51;10.07;;;6.80;;
15936;SDS011;9163;48.818;8.976;2022-12-20T04:02:19;10.23;;;6.73;;
15936;SDS011;9163;48.818;8.976;2022-12-20T04:04:47;10.00;;;6.77;;
15936;SDS011;9163;48.818;8.976;2022-12-20T04:07:16;9.53;;;6.60;;
15936;SDS011;9163;48.818;8.976;2022-12-20T04:09:43;10.73;;;7.07;;
15936;SDS011;9163;48.818;8.976;2022-12-20T04:12:10;10.50;;;6.47;;
15936;SDS011;9163;48.818;8.976;2022-12-20T04:14:37;10.23;;;6.50;;
15936;SDS011;9163;48.818;8.976;2022-12-20T04:17:04;10.10;;;6.10;;
15936;SDS011;9163;48.818;8.976;2022-12-20T04:19:32;9.77;;;6.80;;
15936;SDS011;9163;48.818;8.976;2022-12-20T04:21:59;9.43;;;6.40;;
15936;SDS011;9163;48.818;8.976;2022-12-20T04:24:27;10.23;;;6.80;;
15936;SDS011;9163;48.818;8.976;2022-12-20T04:26:55;9.63;;;6.63;;
15936;SDS011;9163;48.818;8.976;2022-12-20T04:29:22;9.33;;;6.57;;
15936;SDS011;9163;48.818;8.976;2022-12-20T04:31:49;11.07;;;7.30;;
15936;SDS011;9163;48.818;8.976;2022-12-20T04:34:16;11.40;;;7.40;;
15936;SDS011;9163;48.818;8.976;2022-12-20T04:36:43;11.30;;;7.50;;
15936;SDS011;9163;48.818;8.976;2022-12-20T04:39:11;9.97;;;6.80;;
15936;SDS011;9163;48.818;8.976;2022-12-20T04:41:39;11.33;;;7.00;;
15936;SDS011;9163;48.818;8.976;2022-12-20T04:44:06;12.73;;;7.30;;
15936;SDS011;9163;48.818;8.976;2022-12-20T04:46:34;10.50;;;7.27;;
15936;SDS011;9163;48.818;8.976;2022-12-20T04:49:01;12.33;;;7.10;;
15936;SDS011;9163;48.818;8.976;2022-12-20T04:51:28;8.73;;;6.60;;
15936;SDS011;9163;48.818;8.976;2022-12-20T04:53:55;13.30;;;7.33;;
15936;SDS011;9163;48.818;8.976;2022-12-20T04:56:22;12.00;;;7.33;;
15936;SDS011;9163;48.818;8.976;2022-12-20T04:58:54;10.80;;;6.77;;
15936;SDS011;9163;48.818;8.976;2022-12-20T05:01:22;9.27;;;6.90;;
15936;SDS011;9163;48.818;8.976;2022-12-20T05:03:49;10.03;;;6.73;;
15936;SDS011;9163;48.818;8.976;2022-12-20T05:06:17;8.77;;;6.53;;
15936;SDS011;9163;48.818;8.976;2022-12-20T05:08:44;10.70;;;7.10;;
15936;SDS011;9163;48.818;8.976;2022-12-20T05:11:11;9.17;;;6.10;;
15936;SDS011;9163;48.818;8.976;2022-12-20T05:13:39;9.87;;;6.93;;
15936;SDS011;9163;48.818;8.976;2022-12-20T05:16:07;10.73;;;6.67;;
15936;SDS011;9163;48.818;8.976;2022-12-20T05:18:35;10.93;;;6.53;;
15936;SDS011;9163;48.818;8.976;2022-12-20T05:21:02;9.33;;;6.47;;
15936;SDS011;9163;48.818;8.976;2022-12-20T05:23:47;10.73;;;6.73;;
15936;SDS011;9163;48.818;8.976;2022-12-20T05:26:33;9.70;;;6.70;;
15936;SDS011;9163;48.818;8.976;2022-12-20T05:29:02;8.93;;;6.30;;
15936;SDS011;9163;48.818;8.976;2022-12-20T05:31:30;9.80;;;6.27;;
15936;SDS011;9163;48.818;8.976;2022-12-20T05:33:58;9.07;;;6.27;;
15936;SDS011;9163;48.818;8.976;2022-12-20T05:36:25;9.07;;;6.00;;
15936;SDS011;9163;48.818;8.976;2022-12-20T05:38:52;8.83;;;6.10;;
15936;SDS011;9163;48.818;8.976;2022-12-20T05:41:19;11.10;;;6.37;;
15936;SDS011;9163;48.818;8.976;2022-12-20T05:43:46;9.50;;;5.90;;
15936;SDS011;9163;48.818;8.976;2022-12-20T05:46:13;11.47;;;6.50;;
15936;SDS011;9163;48.818;8.976;2022-12-20T05:52:23;7.77;;;6.13;;
15936;SDS011;9163;48.818;8.976;2022-12-20T05:54:51;8.73;;;6.10;;
15936;SDS011;9163;48.818;8.976;2022-12-20T05:57:18;10.57;;;6.20;;
15936;SDS011;9163;48.818;8.976;2022-12-20T05:59:45;7.80;;;5.20;;
15936;SDS011;9163;48.818;8.976;2022-12-20T06:02:12;8.77;;;5.53;;
15936;SDS011;9163;48.818;8.976;2022-12-20T06:04:39;10.50;;;5.90;;
15936;SDS011;9163;48.818;8.976;2022-12-20T06:07:07;8.93;;;5.57;;
15936;SDS011;9163;48.818;8.976;2022-12-20T06:09:35;7.83;;;5.57;;
15936;SDS011;9163;48.818;8.976;2022-12-20T06:12:04;7.00;;;5.20;;
15936;SDS011;9163;48.818;8.976;2022-12-20T06:14:31;8.87;;;5.67;;
15936;SDS011;9163;48.818;8.976;2022-12-20T06:16:58;7.57;;;5.43;;
15936;SDS011;9163;48.818;8.976;2022-12-20T06:19:25;7.07;;;5.20;;
15936;SDS011;9163;48.818;8.976;2022-12-20T06:21:52;6.67;;;5.30;;
15936;SDS011;9163;48.818;8.976;2022-12-20T06:24:20;9.23;;;5.97;;
15936;SDS011;9163;48.818;8.976;2022-12-20T06:26:51;9.00;;;6.00;;
15936;SDS011;9163;48.818;8.976;2022-12-20T06:29:18;10.37;;;5.90;;
15936;SDS011;9163;48.818;8.976;2022-12-20T06:31:45;11.33;;;5.80;;
15936;SDS011;9163;48.818;8.976;2022-12-20T06:34:13;8.87;;;5.77;;
15936;SDS011;9163;48.818;8.976;2022-12-20T06:36:40;6.93;;;4.87;;
15936;SDS011;9163;48.818;8.976;2022-12-20T06:39:07;9.80;;;5.40;;
15936;SDS011;9163;48.818;8.976;2022-12-20T06:41:34;8.03;;;5.40;;
15936;SDS011;9163;48.818;8.976;2022-12-20T06:44:03;8.33;;;5.30;;
15936;SDS011;9163;48.818;8.976;2022-12-20T06:46:30;6.43;;;4.80;;
15936;SDS011;9163;48.818;8.976;2022-12-20T06:48:58;7.43;;;4.70;;
15936;SDS011;9163;48.818;8.976;2022-12-20T06:51:25;8.73;;;4.70;;
15936;SDS011;9163;48.818;8.976;2022-12-20T06:53:52;6.93;;;4.77;;
15936;SDS011;9163;48.818;8.976;2022-12-20T06:56:19;6.70;;;4.40;;
15936;SDS011;9163;48.818;8.976;2022-12-20T06:58:46;9.73;;;4.30;;
15936;SDS011;9163;48.818;8.976;2022-12-20T07:01:15;8.23;;;4.57;;
15936;SDS011;9163;48.818;8.976;2022-12-20T07:03:42;6.67;;;4.10;;
15936;SDS011;9163;48.818;8.976;2022-12-20T07:06:09;6.73;;;4.30;;
15936;SDS011;9163;48.818;8.976;2022-12-20T07:08:36;6.43;;;3.97;;
15936;SDS011;9163;48.818;8.976;2022-12-20T07:11:04;6.70;;;3.90;;
15936;SDS011;9163;48.818;8.976;2022-12-20T07:13:32;5.17;;;3.60;;
15936;SDS011;9163;48.818;8.976;2022-12-20T07:15:59;7.03;;;3.90;;
15936;SDS011;9163;48.818;8.976;2022-12-20T07:18:29;6.87;;;3.83;;
15936;SDS011;9163;48.818;8.976;2022-12-20T07:20:58;45.90;;;9.77;;
15936;SDS011;9163;48.818;8.976;2022-12-20T07:23:26;40.20;;;8.53;;
15936;SDS011;9163;48.818;8.976;2022-12-20T07:25:53;8.30;;;4.03;;
15936;SDS011;9163;48.818;8.976;2022-12-20T07:28:21;5.03;;;3.73;;
15936;SDS011;9163;48.818;8.976;2022-12-20T07:30:48;5.53;;;3.63;;
15936;SDS011;9163;48.818;8.976;2022-12-20T07:33:15;7.60;;;3.87;;
15936;SDS011;9163;48.818;8.976;2022-12-20T07:35:44;6.07;;;3.87;;
15936;SDS011;9163;48.818;8.976;2022-12-20T07:38:12;5.73;;;3.70;;
15936;SDS011;9163;48.818;8.976;2022-12-20T07:40:39;5.03;;;3.60;;
15936;SDS011;9163;48.818;8.976;2022-12-20T07:43:07;6.23;;;3.83;;
15936;SDS011;9163;48.818;8.976;2022-12-20T07:45:34;5.73;;;3.90;;
15936;SDS011;9163;48.818;8.976;2022-12-20T07:48:02;6.37;;;4.00;;
15936;SDS011;9163;48.818;8.976;2022-12-20T07:50:29;5.93;;;4.07;;
15936;SDS011;9163;48.818;8.976;2022-12-20T07:52:59;8.97;;;4.90;;
15936;SDS011;9163;48.818;8.976;2022-12-20T07:55:28;10.77;;;5.07;;
15936;SDS011;9163;48.818;8.976;2022-12-20T07:57:57;7.40;;;4.27;;
15936;SDS011;9163;48.818;8.976;2022-12-20T08:00:29;8.47;;;4.70;;
15936;SDS011;9163;48.818;8.976;2022-12-20T08:02:57;7.17;;;4.20;;
15936;SDS011;9163;48.818;8.976;2022-12-20T08:05:31;8.17;;;4.67;;
15936;SDS011;9163;48.818;8.976;2022-12-20T08:08:00;7.87;;;4.50;;
15936;SDS011;9163;48.818;8.976;2022-12-20T08:10:28;10.37;;;4.57;;
15936;SDS011;9163;48.818;8.976;2022-12-20T08:12:56;8.60;;;4.17;;
15936;SDS011;9163;48.818;8.976;2022-12-20T08:15:24;8.27;;;4.30;;
15936;SDS011;9163;48.818;8.976;2022-12-20T08:17:53;6.63;;;4.40;;
15936;SDS011;9163;48.818;8.976;2022-12-20T08:20:21;9.13;;;4.70;;
15936;SDS011;9163;48.818;8.976;2022-12-20T08:22:48;6.13;;;4.07;;
15936;SDS011;9163;48.818;8.976;2022-12-20T08:25:17;6.00;;;4.00;;
15936;SDS011;9163;48.818;8.976;2022-12-20T08:27:47;7.40;;;4.17;;
15936;SDS011;9163;48.818;8.976;2022-12-20T08:30:15;8.73;;;4.40;;
15936;SDS011;9163;48.818;8.976;2022-12-20T08:32:43;8.87;;;4.20;;
15936;SDS011;9163;48.818;8.976;2022-12-20T08:35:10;8.20;;;4.47;;
15936;SDS011;9163;48.818;8.976;2022-12-20T08:37:37;5.57;;;4.40;;
15936;SDS011;9163;48.818;8.976;2022-12-20T08:40:05;7.00;;;4.00;;
15936;SDS011;9163;48.818;8.976;2022-12-20T08:42:35;9.23;;;4.47;;
15936;SDS011;9163;48.818;8.976;2022-12-20T08:45:03;7.50;;;4.43;;
15936;SDS011;9163;48.818;8.976;2022-12-20T08:47:30;8.13;;;4.80;;
15936;SDS011;9163;48.818;8.976;2022-12-20T08:49:58;8.13;;;4.60;;
15936;SDS011;9163;48.818;8.976;2022-12-20T08:52:26;10.10;;;4.70;;
15936;SDS011;9163;48.818;8.976;2022-12-20T08:54:54;8.53;;;4.60;;
15936;SDS011;9163;48.818;8.976;2022-12-20T08:57:21;8.13;;;4.50;;
15936;SDS011;9163;48.818;8.976;2022-12-20T08:59:50;10.27;;;5.10;;
15936;SDS011;9163;48.818;8.976;2022-12-20T09:02:17;7.40;;;4.43;;
15936;SDS011;9163;48.818;8.976;2022-12-20T09:04:44;8.27;;;5.13;;
15936;SDS011;9163;48.818;8.976;2022-12-20T09:07:11;7.23;;;4.50;;
15936;SDS011;9163;48.818;8.976;2022-12-20T09:09:39;6.60;;;4.00;;
15936;SDS011;9163;48.818;8.976;2022-12-20T09:12:06;6.30;;;3.83;;
15936;SDS011;9163;48.818;8.976;2022-12-20T09:14:33;6.33;;;4.10;;
15936;SDS011;9163;48.818;8.976;2022-12-20T09:17:01;6.33;;;4.03;;
15936;SDS011;9163;48.818;8.976;2022-12-20T09:19:29;7.00;;;3.97;;
15936;SDS011;9163;48.818;8.976;2022-12-20T09:21:56;9.63;;;4.27;;
15936;SDS011;9163;48.818;8.976;2022-12-20T09:24:23;6.83;;;4.07;;
15936;SDS011;9163;48.818;8.976;2022-12-20T09:26:50;7.70;;;4.40;;
15936;SDS011;9163;48.818;8.976;2022-12-20T09:29:18;6.63;;;3.83;;
15936;SDS011;9163;48.818;8.976;2022-12-20T09:31:45;9.63;;;3.90;;
15936;SDS011;9163;48.818;8.976;2022-12-20T09:34:15;5.90;;;3.40;;
15936;SDS011;9163;48.818;8.976;2022-12-20T09:36:43;5.47;;;3.70;;
15936;SDS011;9163;48.818;8.976;2022-12-20T09:39:10;6.33;;;3.90;;
15936;SDS011;9163;48.818;8.976;2022-12-20T09:41:38;7.57;;;3.73;;
15936;SDS011;9163;48.818;8.976;2022-12-20T09:44:10;7.13;;;4.03;;
15936;SDS011;9163;48.818;8.976;2022-12-20T09:46:41;6.07;;;3.83;;
15936;SDS011;9163;48.818;8.976;2022-12-20T09:49:10;7.33;;;3.90;;
15936;SDS011;9163;48.818;8.976;2022-12-20T09:51:48;6.40;;;4.00;;
15936;SDS011;9163;48.818;8.976;2022-12-20T09:54:28;7.10;;;3.50;;
15936;SDS011;9163;48.818;8.976;2022-12-20T09:57:05;10.10;;;3.60;;
15936;SDS011;9163;48.818;8.976;2022-12-20T09:59:41;6.13;;;3.50;;
15936;SDS011;9163;48.818;8.976;2022-12-20T10:02:10;7.77;;;3.97;;
15936;SDS011;9163;48.818;8.976;2022-12-20T10:04:47;4.97;;;3.10;;
15936;SDS011;9163;48.818;8.976;2022-12-20T10:07:19;7.40;;;3.60;;
15936;SDS011;9163;48.818;8.976;2022-12-20T10:10:02;6.73;;;3.63;;
15936;SDS011;9163;48.818;8.976;2022-12-20T10:12:44;5.20;;;3.50;;
15936;SDS011;9163;48.818;8.976;2022-12-20T10:15:19;7.77;;;3.67;;
15936;SDS011;9163;48.818;8.976;2022-12-20T10:17:59;8.23;;;3.63;;
15936;SDS011;9163;48.818;8.976;2022-12-20T10:20:45;8.07;;;4.10;;
15936;SDS011;9163;48.818;8.976;2022-12-20T10:23:22;5.80;;;3.90;;
15936;SDS011;9163;48.818;8.976;2022-12-20T10:25:54;8.20;;;4.20;;
15936;SDS011;9163;48.818;8.976;2022-12-20T10:28:24;7.63;;;3.67;;
15936;SDS011;9163;48.818;8.976;2022-12-20T10:30:53;6.47;;;3.53;;
15936;SDS011;9163;48.818;8.976;2022-12-20T10:33:23;10.47;;;4.03;;
15936;SDS011;9163;48.818;8.976;2022-12-20T10:35:55;9.50;;;3.60;;
15936;SDS011;9163;48.818;8.976;2022-12-20T10:38:42;7.93;;;3.57;;
15936;SDS011;9163;48.818;8.976;2022-12-20T10:41:13;6.33;;;3.70;;
15936;SDS011;9163;48.818;8.976;2022-12-20T10:43:43;8.27;;;3.33;;
15936;SDS011;9163;48.818;8.976;2022-12-20T10:46:13;9.20;;;3.37;;
15936;SDS011;9163;48.818;8.976;2022-12-20T10:48:42;7.07;;;3.47;;
15936;SDS011;9163;48.818;8.976;2022-12-20T10:51:15;6.60;;;3.67;;
15936;SDS011;9163;48.818;8.976;2022-12-20T10:53:55;5.00;;;3.20;;
15936;SDS011;9163;48.818;8.976;2022-12-20T10:56:24;6.87;;;3.50;;
15936;SDS011;9163;48.818;8.976;2022-12-20T10:58:54;6.03;;;3.73;;
15936;SDS011;9163;48.818;8.976;2022-12-20T11:01:23;8.33;;;3.60;;
15936;SDS011;9163;48.818;8.976;2022-12-20T11:03:55;6.57;;;3.30;;
15936;SDS011;9163;48.818;8.976;2022-12-20T11:06:27;7.07;;;3.30;;
15936;SDS011;9163;48.818;8.976;2022-12-20T11:12:00;5.93;;;3.50;;
15936;SDS011;9163;48.818;8.976;2022-12-20T11:14:29;7.60;;;5.00;;
15936;SDS011;9163;48.818;8.976;2022-12-20T11:16:59;8.57;;;4.70;;
15936;SDS011;9163;48.818;8.976;2022-12-20T11:19:35;8.80;;;5.13;;
15936;SDS011;9163;48.818;8.976;2022-12-20T11:22:30;7.97;;;3.97;;
15936;SDS011;9163;48.818;8.976;2022-12-20T11:25:09;6.27;;;4.07;;
15936;SDS011;9163;48.818;8.976;2022-12-20T11:27:51;7.33;;;4.27;;
15936;SDS011;9163;48.818;8.976;2022-12-20T11:30:24;7.43;;;4.17;;
15936;SDS011;9163;48.818;8.976;2022-12-20T11:33:03;8.73;;;3.87;;
15936;SDS011;9163;48.818;8.976;2022-12-20T11:35:41;6.93;;;3.43;;
15936;SDS011;9163;48.818;8.976;2022-12-20T11:38:20;7.00;;;3.60;;
15936;SDS011;9163;48.818;8.976;2022-12-20T11:41:04;6.23;;;3.60;;
15936;SDS011;9163;48.818;8.976;2022-12-20T11:43:42;5.73;;;3.97;;
15936;SDS011;9163;48.818;8.976;2022-12-20T11:46:38;6.63;;;3.87;;
15936;SDS011;9163;48.818;8.976;2022-12-20T11:49:21;7.40;;;3.70;;
15936;SDS011;9163;48.818;8.976;2022-12-20T11:52:03;7.33;;;4.40;;
15936;SDS011;9163;48.818;8.976;2022-12-20T11:54:39;11.30;;;4.17;;
15936;SDS011;9163;48.818;8.976;2022-12-20T11:57:12;8.57;;;4.77;;
15936;SDS011;9163;48.818;8.976;2022-12-20T11:59:44;5.43;;;3.47;;
15936;SDS011;9163;48.818;8.976;2022-12-20T12:02:16;5.80;;;3.80;;
15936;SDS011;9163;48.818;8.976;2022-12-20T12:04:52;6.47;;;3.83;;
15936;SDS011;9163;48.818;8.976;2022-12-20T12:07:24;9.00;;;3.70;;
15936;SDS011;9163;48.818;8.976;2022-12-20T12:09:57;6.60;;;3.60;;
15936;SDS011;9163;48.818;8.976;2022-12-20T12:12:28;7.40;;;3.57;;
15936;SDS011;9163;48.818;8.976;2022-12-20T12:15:02;7.67;;;4.30;;
15936;SDS011;9163;48.818;8.976;2022-12-20T12:17:40;13.07;;;7.50;;
15936;SDS011;9163;48.818;8.976;2022-12-20T12:20:19;7.43;;;4.00;;
15936;SDS011;9163;48.818;8.976;2022-12-20T12:22:52;9.13;;;4.90;;
15936;SDS011;9163;48.818;8.976;2022-12-20T12:25:26;7.37;;;4.20;;
15936;SDS011;9163;48.818;8.976;2022-12-20T12:27:53;9.57;;;5.23;;
15936;SDS011;9163;48.818;8.976;2022-12-20T12:30:20;8.37;;;4.53;;
15936;SDS011;9163;48.818;8.976;2022-12-20T12:33:01;6.47;;;4.03;;
15936;SDS011;9163;48.818;8.976;2022-12-20T12:35:46;5.40;;;3.87;;
15936;SDS011;9163;48.818;8.976;2022-12-20T12:38:30;5.60;;;3.57;;
15936;SDS011;9163;48.818;8.976;2022-12-20T12:41:26;5.27;;;3.53;;
15936;SDS011;9163;48.818;8.976;2022-12-20T12:44:23;5.27;;;3.50;;
15936;SDS011;9163;48.818;8.976;2022-12-20T12:47:04;6.13;;;3.57;;
15936;SDS011;9163;48.818;8.976;2022-12-20T12:49:37;4.90;;;3.40;;
15936;SDS011;9163;48.818;8.976;2022-12-20T12:52:06;6.27;;;3.60;;
15936;SDS011;9163;48.818;8.976;2022-12-20T12:54:48;11.83;;;5.00;;
15936;SDS011;9163;48.818;8.976;2022-12-20T12:57:19;7.80;;;3.60;;
15936;SDS011;9163;48.818;8.976;2022-12-20T12:59:58;4.90;;;3.43;;
15936;SDS011;9163;48.818;8.976;2022-12-20T13:02:35;6.93;;;3.80;;
15936;SDS011;9163;48.818;8.976;2022-12-20T13:08:13;8.63;;;4.93;;
15936;SDS011;9163;48.818;8.976;2022-12-20T13:10:56;5.30;;;3.53;;
15936;SDS011;9163;48.818;8.976;2022-12-20T13:13:29;5.43;;;3.60;;
15936;SDS011;9163;48.818;8.976;2022-12-20T13:19:10;4.90;;;2.60;;
15936;SDS011;9163;48.818;8.976;2022-12-20T13:21:39;4.13;;;3.17;;
15936;SDS011;9163;48.818;8.976;2022-12-20T13:27:16;5.80;;;3.80;;
15936;SDS011;9163;48.818;8.976;2022-12-20T13:29:54;6.50;;;3.37;;
15936;SDS011;9163;48.818;8.976;2022-12-20T13:32:53;6.00;;;3.80;;
15936;SDS011;9163;48.818;8.976;2022-12-20T13:38:40;7.53;;;3.70;;
15936;SDS011;9163;48.818;8.976;2022-12-20T13:41:22;9.93;;;4.27;;
15936;SDS011;9163;48.818;8.976;2022-12-20T13:44:17;7.83;;;4.30;;
15936;SDS011;9163;48.818;8.976;2022-12-20T13:47:03;10.33;;;4.70;;
15936;SDS011;9163;48.818;8.976;2022-12-20T13:49:38;11.13;;;4.93;;
15936;SDS011;9163;48.818;8.976;2022-12-20T13:52:11;8.00;;;4.10;;
15936;SDS011;9163;48.818;8.976;2022-12-20T13:54:43;6.60;;;4.10;;
15936;SDS011;9163;48.818;8.976;2022-12-20T13:57:13;6.93;;;3.70;;
15936;SDS011;9163;48.818;8.976;2022-12-20T13:59:44;7.27;;;3.87;;
15936;SDS011;9163;48.818;8.976;2022-12-20T14:02:18;7.00;;;3.30;;
15936;SDS011;9163;48.818;8.976;2022-12-20T14:04:50;8.43;;;3.80;;
15936;SDS011;9163;48.818;8.976;2022-12-20T14:07:23;5.03;;;3.63;;
15936;SDS011;9163;48.818;8.976;2022-12-20T14:09:56;5.53;;;3.33;;
15936;SDS011;9163;48.818;8.976;2022-12-20T14:12:25;6.77;;;3.70;;
15936;SDS011;9163;48.818;8.976;2022-12-20T14:14:53;7.07;;;3.90;;
15936;SDS011;9163;48.818;8.976;2022-12-20T14:17:23;5.00;;;3.50;;
15936;SDS011;9163;48.818;8.976;2022-12-20T14:20:02;6.70;;;3.47;;
15936;SDS011;9163;48.818;8.976;2022-12-20T14:22:31;7.57;;;3.80;;
15936;SDS011;9163;48.818;8.976;2022-12-20T14:25:00;6.03;;;3.33;;
15936;SDS011;9163;48.818;8.976;2022-12-20T14:27:32;7.93;;;3.30;;
15936;SDS011;9163;48.818;8.976;2022-12-20T14:30:02;6.40;;;3.33;;
15936;SDS011;9163;48.818;8.976;2022-12-20T14:32:31;8.13;;;3.47;;
15936;SDS011;9163;48.818;8.976;2022-12-20T14:34:59;7.63;;;3.20;;
15936;SDS011;9163;48.818;8.976;2022-12-20T14:37:27;8.23;;;4.10;;
15936;SDS011;9163;48.818;8.976;2022-12-20T14:40:00;10.73;;;5.33;;
15936;SDS011;9163;48.818;8.976;2022-12-20T14:42:31;6.40;;;3.70;;
15936;SDS011;9163;48.818;8.976;2022-12-20T14:45:14;9.80;;;4.53;;
15936;SDS011;9163;48.818;8.976;2022-12-20T14:47:49;11.47;;;6.33;;
15936;SDS011;9163;48.818;8.976;2022-12-20T14:50:21;6.93;;;3.50;;
15936;SDS011;9163;48.818;8.976;2022-12-20T14:52:52;7.33;;;3.50;;
15936;SDS011;9163;48.818;8.976;2022-12-20T14:55:20;7.53;;;3.60;;
15936;SDS011;9163;48.818;8.976;2022-12-20T14:57:50;10.13;;;3.70;;
15936;SDS011;9163;48.818;8.976;2022-12-20T15:00:20;7.97;;;3.50;;
15936;SDS011;9163;48.818;8.976;2022-12-20T15:02:51;10.93;;;3.80;;
15936;SDS011;9163;48.818;8.976;2022-12-20T15:05:44;15.07;;;4.70;;
15936;SDS011;9163;48.818;8.976;2022-12-20T15:08:14;12.43;;;5.70;;
15936;SDS011;9163;48.818;8.976;2022-12-20T15:10:48;9.87;;;4.90;;
15936;SDS011;9163;48.818;8.976;2022-12-20T15:13:19;9.43;;;4.50;;
15936;SDS011;9163;48.818;8.976;2022-12-20T15:15:47;7.10;;;3.60;;
15936;SDS011;9163;48.818;8.976;2022-12-20T15:18:16;5.40;;;3.43;;
15936;SDS011;9163;48.818;8.976;2022-12-20T15:20:46;5.90;;;3.27;;
15936;SDS011;9163;48.818;8.976;2022-12-20T15:23:16;6.63;;;3.23;;
15936;SDS011;9163;48.818;8.976;2022-12-20T15:25:45;6.97;;;3.13;;
15936;SDS011;9163;48.818;8.976;2022-12-20T15:28:14;7.00;;;3.90;;
15936;SDS011;9163;48.818;8.976;2022-12-20T15:30:43;9.03;;;3.93;;
15936;SDS011;9163;48.818;8.976;2022-12-20T15:33:19;8.87;;;3.70;;
15936;SDS011;9163;48.818;8.976;2022-12-20T15:35:49;7.50;;;3.80;;
15936;SDS011;9163;48.818;8.976;2022-12-20T15:38:17;6.73;;;3.50;;